sensor_id;sensor_type;location;lat;lon;timestamp;P1;durP1;ratioP1;P2;durP2;ratioP2
10150;SDS011;5116;52.318;4.644;2023-04-19T00:02:19;3.20;;;2.90;;
10150;SDS011;5116;52.318;4.644;2023-04-19T00:04:47;3.53;;;2.87;;
10150;SDS011;5116;52.318;4.644;2023-04-19T00:07:14;4.33;;;3.00;;
10150;SDS011;5116;52.318;4.644;2023-04-19T00:09:44;4.70;;;3.10;;
10150;SDS011;5116;52.318;4.644;2023-04-19T00:12:11;3.23;;;2.93;;
10150;SDS011;5116;52.318;4.644;2023-04-19T00:14:38;4.83;;;3.70;;
10150;SDS011;5116;52.318;4.644;2023-04-19T00:17:06;3.60;;;3.30;;
10150;SDS011;5116;52.318;4.644;2023-04-19T00:19:33;3.67;;;3.33;;
10150;SDS011;5116;52.318;4.644;2023-04-19T00:22:01;4.10;;;3.33;;
10150;SDS011;5116;52.318;4.644;2023-04-19T00:24:28;3.50;;;3.10;;
10150;SDS011;5116;52.318;4.644;2023-04-19T00:26:58;5.17;;;3.70;;
10150;SDS011;5116;52.318;4.644;2023-04-19T00:29:26;4.30;;;2.90;;
10150;SDS011;5116;52.318;4.644;2023-04-19T00:31:53;5.57;;;3.07;;
10150;SDS011;5116;52.318;4.644;2023-04-19T00:34:22;4.40;;;3.97;;
10150;SDS011;5116;52.318;4.644;2023-04-19T00:36:52;4.53;;;3.43;;
10150;SDS011;5116;52.318;4.644;2023-04-19T00:39:20;4.97;;;3.57;;
10150;SDS011;5116;52.318;4.644;2023-04-19T00:41:48;3.63;;;3.20;;
10150;SDS011;5116;52.318;4.644;2023-04-19T00:44:17;3.90;;;3.47;;
10150;SDS011;5116;52.318;4.644;2023-04-19T00:46:45;4.70;;;3.77;;
10150;SDS011;5116;52.318;4.644;2023-04-19T00:49:16;4.00;;;3.30;;
10150;SDS011;5116;52.318;4.644;2023-04-19T00:51:44;3.83;;;3.13;;
10150;SDS011;5116;52.318;4.644;2023-04-19T00:54:14;3.07;;;2.77;;
10150;SDS011;5116;52.318;4.644;2023-04-19T00:56:43;4.17;;;3.13;;
10150;SDS011;5116;52.318;4.644;2023-04-19T00:59:12;4.50;;;3.37;;
10150;SDS011;5116;52.318;4.644;2023-04-19T01:01:42;4.23;;;3.33;;
10150;SDS011;5116;52.318;4.644;2023-04-19T01:04:10;3.83;;;3.20;;
10150;SDS011;5116;52.318;4.644;2023-04-19T01:06:39;3.87;;;3.47;;
10150;SDS011;5116;52.318;4.644;2023-04-19T01:09:10;4.43;;;3.33;;
10150;SDS011;5116;52.318;4.644;2023-04-19T01:11:40;3.10;;;2.73;;
10150;SDS011;5116;52.318;4.644;2023-04-19T01:14:09;3.80;;;3.03;;
10150;SDS011;5116;52.318;4.644;2023-04-19T01:16:45;4.40;;;3.37;;
10150;SDS011;5116;52.318;4.644;2023-04-19T01:19:14;3.53;;;3.20;;
10150;SDS011;5116;52.318;4.644;2023-04-19T01:21:42;4.07;;;3.67;;
10150;SDS011;5116;52.318;4.644;2023-04-19T01:24:10;3.67;;;3.30;;
10150;SDS011;5116;52.318;4.644;2023-04-19T01:26:38;4.77;;;3.17;;
10150;SDS011;5116;52.318;4.644;2023-04-19T01:29:06;4.73;;;3.43;;
10150;SDS011;5116;52.318;4.644;2023-04-19T01:31:34;5.17;;;3.13;;
10150;SDS011;5116;52.318;4.644;2023-04-19T01:34:02;4.67;;;3.67;;
10150;SDS011;5116;52.318;4.644;2023-04-19T01:36:30;4.43;;;3.90;;
10150;SDS011;5116;52.318;4.644;2023-04-19T01:38:58;3.57;;;3.27;;
10150;SDS011;5116;52.318;4.644;2023-04-19T01:41:26;3.73;;;3.30;;
10150;SDS011;5116;52.318;4.644;2023-04-19T01:43:55;4.67;;;3.30;;
10150;SDS011;5116;52.318;4.644;2023-04-19T01:46:22;4.47;;;3.00;;
10150;SDS011;5116;52.318;4.644;2023-04-19T01:48:50;5.60;;;3.77;;
10150;SDS011;5116;52.318;4.644;2023-04-19T01:51:20;4.03;;;3.60;;
10150;SDS011;5116;52.318;4.644;2023-04-19T01:53:48;4.63;;;3.40;;
10150;SDS011;5116;52.318;4.644;2023-04-19T01:56:21;5.33;;;4.20;;
10150;SDS011;5116;52.318;4.644;2023-04-19T01:58:49;5.63;;;3.60;;
10150;SDS011;5116;52.318;4.644;2023-04-19T02:01:16;4.33;;;3.60;;
10150;SDS011;5116;52.318;4.644;2023-04-19T02:03:44;4.37;;;3.80;;
10150;SDS011;5116;52.318;4.644;2023-04-19T02:06:14;4.57;;;3.97;;
10150;SDS011;5116;52.318;4.644;2023-04-19T02:08:44;5.37;;;3.87;;
10150;SDS011;5116;52.318;4.644;2023-04-19T02:11:14;4.43;;;3.93;;
10150;SDS011;5116;52.318;4.644;2023-04-19T02:13:42;4.10;;;3.73;;
10150;SDS011;5116;52.318;4.644;2023-04-19T02:16:10;5.60;;;4.70;;
10150;SDS011;5116;52.318;4.644;2023-04-19T02:18:39;4.80;;;3.80;;
10150;SDS011;5116;52.318;4.644;2023-04-19T02:21:07;5.33;;;4.07;;
10150;SDS011;5116;52.318;4.644;2023-04-19T02:23:35;4.93;;;3.50;;
10150;SDS011;5116;52.318;4.644;2023-04-19T02:26:02;7.90;;;4.93;;
10150;SDS011;5116;52.318;4.644;2023-04-19T02:28:30;5.23;;;4.33;;
10150;SDS011;5116;52.318;4.644;2023-04-19T02:31:02;5.20;;;4.03;;
10150;SDS011;5116;52.318;4.644;2023-04-19T02:33:33;5.50;;;4.23;;
10150;SDS011;5116;52.318;4.644;2023-04-19T02:36:00;6.37;;;4.27;;
10150;SDS011;5116;52.318;4.644;2023-04-19T02:38:28;4.57;;;3.50;;
10150;SDS011;5116;52.318;4.644;2023-04-19T02:40:56;4.77;;;3.80;;
10150;SDS011;5116;52.318;4.644;2023-04-19T02:43:24;5.07;;;3.47;;
10150;SDS011;5116;52.318;4.644;2023-04-19T02:45:51;5.03;;;4.17;;
10150;SDS011;5116;52.318;4.644;2023-04-19T02:48:19;6.27;;;3.90;;
10150;SDS011;5116;52.318;4.644;2023-04-19T02:50:48;5.07;;;3.87;;
10150;SDS011;5116;52.318;4.644;2023-04-19T02:53:16;4.37;;;3.83;;
10150;SDS011;5116;52.318;4.644;2023-04-19T02:55:46;5.67;;;4.57;;
10150;SDS011;5116;52.318;4.644;2023-04-19T02:58:16;7.30;;;5.27;;
10150;SDS011;5116;52.318;4.644;2023-04-19T03:00:58;4.30;;;3.90;;
10150;SDS011;5116;52.318;4.644;2023-04-19T03:03:26;5.63;;;4.27;;
10150;SDS011;5116;52.318;4.644;2023-04-19T03:05:54;5.83;;;4.23;;
10150;SDS011;5116;52.318;4.644;2023-04-19T03:08:21;6.53;;;4.10;;
10150;SDS011;5116;52.318;4.644;2023-04-19T03:10:49;4.93;;;3.63;;
10150;SDS011;5116;52.318;4.644;2023-04-19T03:13:16;5.67;;;3.83;;
10150;SDS011;5116;52.318;4.644;2023-04-19T03:15:45;5.63;;;4.20;;
10150;SDS011;5116;52.318;4.644;2023-04-19T03:18:14;5.60;;;4.23;;
10150;SDS011;5116;52.318;4.644;2023-04-19T03:20:43;4.83;;;4.30;;
10150;SDS011;5116;52.318;4.644;2023-04-19T03:23:11;6.67;;;4.50;;
10150;SDS011;5116;52.318;4.644;2023-04-19T03:25:39;5.00;;;4.37;;
10150;SDS011;5116;52.318;4.644;2023-04-19T03:28:19;4.53;;;4.07;;
10150;SDS011;5116;52.318;4.644;2023-04-19T03:31:05;4.80;;;4.10;;
10150;SDS011;5116;52.318;4.644;2023-04-19T03:33:33;5.37;;;4.50;;
10150;SDS011;5116;52.318;4.644;2023-04-19T03:36:01;4.50;;;3.90;;
10150;SDS011;5116;52.318;4.644;2023-04-19T03:38:29;5.00;;;4.30;;
10150;SDS011;5116;52.318;4.644;2023-04-19T03:40:57;6.13;;;4.13;;
10150;SDS011;5116;52.318;4.644;2023-04-19T03:43:30;4.47;;;3.90;;
10150;SDS011;5116;52.318;4.644;2023-04-19T03:45:58;7.17;;;4.47;;
10150;SDS011;5116;52.318;4.644;2023-04-19T03:48:26;4.97;;;4.47;;
10150;SDS011;5116;52.318;4.644;2023-04-19T03:50:55;5.93;;;4.13;;
10150;SDS011;5116;52.318;4.644;2023-04-19T03:53:23;4.93;;;4.37;;
10150;SDS011;5116;52.318;4.644;2023-04-19T03:55:50;5.53;;;4.37;;
10150;SDS011;5116;52.318;4.644;2023-04-19T03:58:18;5.40;;;4.10;;
10150;SDS011;5116;52.318;4.644;2023-04-19T04:00:51;4.77;;;3.87;;
10150;SDS011;5116;52.318;4.644;2023-04-19T04:03:19;5.87;;;5.27;;
10150;SDS011;5116;52.318;4.644;2023-04-19T04:05:48;5.40;;;4.60;;
10150;SDS011;5116;52.318;4.644;2023-04-19T04:08:16;4.93;;;3.83;;
10150;SDS011;5116;52.318;4.644;2023-04-19T04:10:43;6.77;;;4.03;;
10150;SDS011;5116;52.318;4.644;2023-04-19T04:13:11;4.60;;;3.90;;
10150;SDS011;5116;52.318;4.644;2023-04-19T04:15:46;5.27;;;4.47;;
10150;SDS011;5116;52.318;4.644;2023-04-19T04:18:15;4.43;;;3.77;;
10150;SDS011;5116;52.318;4.644;2023-04-19T04:20:43;5.70;;;4.10;;
10150;SDS011;5116;52.318;4.644;2023-04-19T04:23:11;4.90;;;4.23;;
10150;SDS011;5116;52.318;4.644;2023-04-19T04:25:45;5.93;;;4.73;;
10150;SDS011;5116;52.318;4.644;2023-04-19T04:28:13;5.37;;;4.43;;
10150;SDS011;5116;52.318;4.644;2023-04-19T04:30:41;5.57;;;4.10;;
10150;SDS011;5116;52.318;4.644;2023-04-19T04:33:11;5.80;;;4.53;;
10150;SDS011;5116;52.318;4.644;2023-04-19T04:35:41;6.33;;;4.40;;
10150;SDS011;5116;52.318;4.644;2023-04-19T04:38:14;5.20;;;4.10;;
10150;SDS011;5116;52.318;4.644;2023-04-19T04:40:51;4.80;;;4.03;;
10150;SDS011;5116;52.318;4.644;2023-04-19T04:43:20;4.30;;;3.90;;
10150;SDS011;5116;52.318;4.644;2023-04-19T04:45:48;5.47;;;4.27;;
10150;SDS011;5116;52.318;4.644;2023-04-19T04:48:17;6.77;;;3.97;;
10150;SDS011;5116;52.318;4.644;2023-04-19T04:50:44;5.53;;;4.03;;
10150;SDS011;5116;52.318;4.644;2023-04-19T04:53:12;5.67;;;4.33;;
10150;SDS011;5116;52.318;4.644;2023-04-19T04:55:42;5.70;;;4.30;;
10150;SDS011;5116;52.318;4.644;2023-04-19T04:58:11;4.20;;;3.80;;
10150;SDS011;5116;52.318;4.644;2023-04-19T05:00:56;6.90;;;4.30;;
10150;SDS011;5116;52.318;4.644;2023-04-19T05:03:25;4.50;;;4.10;;
10150;SDS011;5116;52.318;4.644;2023-04-19T05:05:57;3.90;;;3.53;;
10150;SDS011;5116;52.318;4.644;2023-04-19T05:08:25;4.03;;;3.73;;
10150;SDS011;5116;52.318;4.644;2023-04-19T05:10:58;6.00;;;4.20;;
10150;SDS011;5116;52.318;4.644;2023-04-19T05:13:28;4.33;;;3.77;;
10150;SDS011;5116;52.318;4.644;2023-04-19T05:15:57;5.27;;;4.37;;
10150;SDS011;5116;52.318;4.644;2023-04-19T05:18:26;6.07;;;4.67;;
10150;SDS011;5116;52.318;4.644;2023-04-19T05:20:55;4.43;;;3.90;;
10150;SDS011;5116;52.318;4.644;2023-04-19T05:23:26;5.20;;;3.77;;
10150;SDS011;5116;52.318;4.644;2023-04-19T05:25:53;5.47;;;3.80;;
10150;SDS011;5116;52.318;4.644;2023-04-19T05:28:23;4.80;;;4.20;;
10150;SDS011;5116;52.318;4.644;2023-04-19T05:31:00;6.00;;;4.17;;
10150;SDS011;5116;52.318;4.644;2023-04-19T05:33:33;5.23;;;3.80;;
10150;SDS011;5116;52.318;4.644;2023-04-19T05:36:00;4.67;;;4.07;;
10150;SDS011;5116;52.318;4.644;2023-04-19T05:38:28;4.33;;;3.93;;
10150;SDS011;5116;52.318;4.644;2023-04-19T05:41:00;5.83;;;4.47;;
10150;SDS011;5116;52.318;4.644;2023-04-19T05:43:28;7.23;;;4.67;;
10150;SDS011;5116;52.318;4.644;2023-04-19T05:45:56;6.17;;;4.07;;
10150;SDS011;5116;52.318;4.644;2023-04-19T05:48:24;3.87;;;3.50;;
10150;SDS011;5116;52.318;4.644;2023-04-19T05:51:00;4.33;;;3.70;;
10150;SDS011;5116;52.318;4.644;2023-04-19T05:53:48;4.20;;;3.80;;
10150;SDS011;5116;52.318;4.644;2023-04-19T05:56:18;3.97;;;3.53;;
10150;SDS011;5116;52.318;4.644;2023-04-19T05:58:45;5.45;;;4.95;;
10150;SDS011;5116;52.318;4.644;2023-04-19T06:01:13;4.07;;;3.50;;
10150;SDS011;5116;52.318;4.644;2023-04-19T06:03:40;4.23;;;3.50;;
10150;SDS011;5116;52.318;4.644;2023-04-19T06:06:09;4.23;;;3.53;;
10150;SDS011;5116;52.318;4.644;2023-04-19T06:08:38;4.17;;;3.53;;
10150;SDS011;5116;52.318;4.644;2023-04-19T06:11:08;4.07;;;3.67;;
10150;SDS011;5116;52.318;4.644;2023-04-19T06:13:52;4.10;;;3.70;;
10150;SDS011;5116;52.318;4.644;2023-04-19T06:16:19;4.70;;;4.20;;
10150;SDS011;5116;52.318;4.644;2023-04-19T06:18:47;6.43;;;3.87;;
10150;SDS011;5116;52.318;4.644;2023-04-19T06:21:14;4.10;;;3.70;;
10150;SDS011;5116;52.318;4.644;2023-04-19T06:23:42;4.63;;;3.50;;
10150;SDS011;5116;52.318;4.644;2023-04-19T06:26:09;3.60;;;3.17;;
10150;SDS011;5116;52.318;4.644;2023-04-19T06:28:37;4.50;;;3.13;;
10150;SDS011;5116;52.318;4.644;2023-04-19T06:31:04;4.23;;;3.50;;
10150;SDS011;5116;52.318;4.644;2023-04-19T06:33:31;5.03;;;3.50;;
10150;SDS011;5116;52.318;4.644;2023-04-19T06:35:59;3.80;;;3.30;;
10150;SDS011;5116;52.318;4.644;2023-04-19T06:38:26;5.87;;;3.13;;
10150;SDS011;5116;52.318;4.644;2023-04-19T06:40:54;4.10;;;3.50;;
10150;SDS011;5116;52.318;4.644;2023-04-19T06:43:21;3.60;;;3.27;;
10150;SDS011;5116;52.318;4.644;2023-04-19T06:45:56;3.97;;;3.57;;
10150;SDS011;5116;52.318;4.644;2023-04-19T06:48:23;3.83;;;3.27;;
10150;SDS011;5116;52.318;4.644;2023-04-19T06:50:51;4.00;;;3.30;;
10150;SDS011;5116;52.318;4.644;2023-04-19T06:53:19;4.10;;;3.27;;
10150;SDS011;5116;52.318;4.644;2023-04-19T06:55:46;3.57;;;2.93;;
10150;SDS011;5116;52.318;4.644;2023-04-19T06:58:14;4.67;;;3.67;;
10150;SDS011;5116;52.318;4.644;2023-04-19T07:00:41;2.90;;;2.70;;
10150;SDS011;5116;52.318;4.644;2023-04-19T07:03:09;4.97;;;3.43;;
10150;SDS011;5116;52.318;4.644;2023-04-19T07:05:37;3.87;;;3.20;;
10150;SDS011;5116;52.318;4.644;2023-04-19T07:08:04;3.10;;;2.80;;
10150;SDS011;5116;52.318;4.644;2023-04-19T07:10:31;4.17;;;3.17;;
10150;SDS011;5116;52.318;4.644;2023-04-19T07:12:59;4.80;;;3.30;;
10150;SDS011;5116;52.318;4.644;2023-04-19T07:15:26;3.30;;;2.70;;
10150;SDS011;5116;52.318;4.644;2023-04-19T07:17:54;3.27;;;2.97;;
10150;SDS011;5116;52.318;4.644;2023-04-19T07:20:21;5.07;;;3.23;;
10150;SDS011;5116;52.318;4.644;2023-04-19T07:22:48;4.03;;;3.20;;
10150;SDS011;5116;52.318;4.644;2023-04-19T07:25:16;2.77;;;2.57;;
10150;SDS011;5116;52.318;4.644;2023-04-19T07:27:44;3.40;;;3.10;;
10150;SDS011;5116;52.318;4.644;2023-04-19T07:30:12;3.07;;;2.77;;
10150;SDS011;5116;52.318;4.644;2023-04-19T07:32:39;3.27;;;2.83;;
10150;SDS011;5116;52.318;4.644;2023-04-19T07:35:07;3.30;;;2.80;;
10150;SDS011;5116;52.318;4.644;2023-04-19T07:37:35;4.17;;;3.33;;
10150;SDS011;5116;52.318;4.644;2023-04-19T07:40:05;3.83;;;2.80;;
10150;SDS011;5116;52.318;4.644;2023-04-19T07:42:32;3.90;;;2.57;;
10150;SDS011;5116;52.318;4.644;2023-04-19T07:45:00;3.30;;;2.50;;
10150;SDS011;5116;52.318;4.644;2023-04-19T07:47:27;2.90;;;2.30;;
10150;SDS011;5116;52.318;4.644;2023-04-19T07:49:55;4.33;;;2.93;;
10150;SDS011;5116;52.318;4.644;2023-04-19T07:52:22;3.63;;;2.83;;
10150;SDS011;5116;52.318;4.644;2023-04-19T07:54:50;2.93;;;2.57;;
10150;SDS011;5116;52.318;4.644;2023-04-19T07:57:18;3.20;;;2.77;;
10150;SDS011;5116;52.318;4.644;2023-04-19T07:59:46;3.27;;;2.77;;
10150;SDS011;5116;52.318;4.644;2023-04-19T08:02:13;2.73;;;2.53;;
10150;SDS011;5116;52.318;4.644;2023-04-19T08:04:43;2.60;;;2.40;;
10150;SDS011;5116;52.318;4.644;2023-04-19T08:07:14;3.10;;;2.50;;
10150;SDS011;5116;52.318;4.644;2023-04-19T08:09:41;4.63;;;2.70;;
10150;SDS011;5116;52.318;4.644;2023-04-19T08:12:09;3.00;;;2.33;;
10150;SDS011;5116;52.318;4.644;2023-04-19T08:14:51;2.67;;;2.43;;
10150;SDS011;5116;52.318;4.644;2023-04-19T08:17:36;2.60;;;2.40;;
10150;SDS011;5116;52.318;4.644;2023-04-19T08:20:08;2.00;;;1.80;;
10150;SDS011;5116;52.318;4.644;2023-04-19T08:22:37;2.30;;;2.10;;
10150;SDS011;5116;52.318;4.644;2023-04-19T08:25:06;2.90;;;2.17;;
10150;SDS011;5116;52.318;4.644;2023-04-19T08:27:34;3.37;;;2.00;;
10150;SDS011;5116;52.318;4.644;2023-04-19T08:30:02;2.30;;;2.07;;
10150;SDS011;5116;52.318;4.644;2023-04-19T08:32:30;2.27;;;2.07;;
10150;SDS011;5116;52.318;4.644;2023-04-19T08:34:58;3.40;;;2.27;;
10150;SDS011;5116;52.318;4.644;2023-04-19T08:37:26;2.30;;;2.10;;
10150;SDS011;5116;52.318;4.644;2023-04-19T08:39:54;3.27;;;2.60;;
10150;SDS011;5116;52.318;4.644;2023-04-19T08:42:21;2.87;;;2.50;;
10150;SDS011;5116;52.318;4.644;2023-04-19T08:45:02;1.73;;;1.63;;
10150;SDS011;5116;52.318;4.644;2023-04-19T08:47:36;2.70;;;2.10;;
10150;SDS011;5116;52.318;4.644;2023-04-19T08:50:24;2.70;;;2.00;;
10150;SDS011;5116;52.318;4.644;2023-04-19T08:53:01;2.13;;;1.80;;
10150;SDS011;5116;52.318;4.644;2023-04-19T08:55:31;2.13;;;1.97;;
10150;SDS011;5116;52.318;4.644;2023-04-19T08:57:59;3.00;;;2.33;;
10150;SDS011;5116;52.318;4.644;2023-04-19T09:00:32;2.03;;;1.90;;
10150;SDS011;5116;52.318;4.644;2023-04-19T09:02:59;2.40;;;2.00;;
10150;SDS011;5116;52.318;4.644;2023-04-19T09:05:27;2.03;;;1.83;;
10150;SDS011;5116;52.318;4.644;2023-04-19T09:07:55;2.00;;;1.70;;
10150;SDS011;5116;52.318;4.644;2023-04-19T09:10:56;2.30;;;1.83;;
10150;SDS011;5116;52.318;4.644;2023-04-19T09:13:24;2.63;;;1.80;;
10150;SDS011;5116;52.318;4.644;2023-04-19T09:15:51;1.90;;;1.80;;
10150;SDS011;5116;52.318;4.644;2023-04-19T09:18:20;1.83;;;1.73;;
10150;SDS011;5116;52.318;4.644;2023-04-19T09:20:47;2.63;;;2.10;;
10150;SDS011;5116;52.318;4.644;2023-04-19T09:23:16;2.27;;;1.80;;
10150;SDS011;5116;52.318;4.644;2023-04-19T09:25:51;2.00;;;1.80;;
10150;SDS011;5116;52.318;4.644;2023-04-19T09:28:24;1.67;;;1.57;;
10150;SDS011;5116;52.318;4.644;2023-04-19T09:30:52;1.80;;;1.70;;
10150;SDS011;5116;52.318;4.644;2023-04-19T09:33:36;1.50;;;1.40;;
10150;SDS011;5116;52.318;4.644;2023-04-19T09:36:05;1.93;;;1.57;;
10150;SDS011;5116;52.318;4.644;2023-04-19T09:38:51;1.90;;;1.53;;
10150;SDS011;5116;52.318;4.644;2023-04-19T09:41:19;1.70;;;1.60;;
10150;SDS011;5116;52.318;4.644;2023-04-19T09:43:47;2.50;;;1.80;;
10150;SDS011;5116;52.318;4.644;2023-04-19T09:46:33;2.20;;;1.70;;
10150;SDS011;5116;52.318;4.644;2023-04-19T09:51:53;1.90;;;1.70;;
10150;SDS011;5116;52.318;4.644;2023-04-19T09:54:22;1.53;;;1.33;;
10150;SDS011;5116;52.318;4.644;2023-04-19T09:56:50;1.33;;;1.23;;
10150;SDS011;5116;52.318;4.644;2023-04-19T09:59:24;2.17;;;1.60;;
10150;SDS011;5116;52.318;4.644;2023-04-19T10:01:54;2.07;;;1.60;;
10150;SDS011;5116;52.318;4.644;2023-04-19T10:04:22;1.70;;;1.60;;
10150;SDS011;5116;52.318;4.644;2023-04-19T10:07:10;2.03;;;1.83;;
10150;SDS011;5116;52.318;4.644;2023-04-19T10:09:40;1.60;;;1.50;;
10150;SDS011;5116;52.318;4.644;2023-04-19T10:12:20;2.27;;;1.70;;
10150;SDS011;5116;52.318;4.644;2023-04-19T10:15:09;1.70;;;1.60;;
10150;SDS011;5116;52.318;4.644;2023-04-19T10:17:38;1.77;;;1.67;;
10150;SDS011;5116;52.318;4.644;2023-04-19T10:20:06;1.93;;;1.60;;
10150;SDS011;5116;52.318;4.644;2023-04-19T10:22:35;1.87;;;1.67;;
10150;SDS011;5116;52.318;4.644;2023-04-19T10:27:39;1.27;;;1.17;;
10150;SDS011;5116;52.318;4.644;2023-04-19T10:30:15;1.97;;;1.70;;
10150;SDS011;5116;52.318;4.644;2023-04-19T10:32:44;1.77;;;1.67;;
10150;SDS011;5116;52.318;4.644;2023-04-19T10:35:16;1.50;;;1.40;;
10150;SDS011;5116;52.318;4.644;2023-04-19T10:43:18;1.77;;;1.57;;
10150;SDS011;5116;52.318;4.644;2023-04-19T10:45:46;1.53;;;1.40;;
10150;SDS011;5116;52.318;4.644;2023-04-19T10:53:46;1.90;;;1.70;;
10150;SDS011;5116;52.318;4.644;2023-04-19T10:56:15;1.50;;;1.40;;
10150;SDS011;5116;52.318;4.644;2023-04-19T11:04:05;1.50;;;1.40;;
10150;SDS011;5116;52.318;4.644;2023-04-19T11:06:33;1.40;;;1.30;;
10150;SDS011;5116;52.318;4.644;2023-04-19T11:09:04;1.30;;;1.20;;
10150;SDS011;5116;52.318;4.644;2023-04-19T11:11:35;1.43;;;1.30;;
10150;SDS011;5116;52.318;4.644;2023-04-19T11:14:04;1.57;;;1.43;;
10150;SDS011;5116;52.318;4.644;2023-04-19T11:16:34;1.30;;;1.20;;
10150;SDS011;5116;52.318;4.644;2023-04-19T11:19:14;3.03;;;1.23;;
10150;SDS011;5116;52.318;4.644;2023-04-19T11:21:46;1.90;;;1.40;;
10150;SDS011;5116;52.318;4.644;2023-04-19T11:24:13;1.53;;;1.40;;
10150;SDS011;5116;52.318;4.644;2023-04-19T11:26:46;1.37;;;1.27;;
10150;SDS011;5116;52.318;4.644;2023-04-19T11:29:15;1.37;;;1.27;;
10150;SDS011;5116;52.318;4.644;2023-04-19T11:31:43;1.50;;;1.40;;
10150;SDS011;5116;52.318;4.644;2023-04-19T11:34:12;1.40;;;1.30;;
10150;SDS011;5116;52.318;4.644;2023-04-19T11:36:46;2.27;;;1.87;;
10150;SDS011;5116;52.318;4.644;2023-04-19T11:39:14;1.40;;;1.30;;
10150;SDS011;5116;52.318;4.644;2023-04-19T11:41:42;1.60;;;1.30;;
10150;SDS011;5116;52.318;4.644;2023-04-19T11:44:16;1.90;;;1.30;;
10150;SDS011;5116;52.318;4.644;2023-04-19T11:47:02;1.57;;;1.47;;
10150;SDS011;5116;52.318;4.644;2023-04-19T11:49:32;2.20;;;2.00;;
10150;SDS011;5116;52.318;4.644;2023-04-19T11:52:00;1.83;;;1.60;;
10150;SDS011;5116;52.318;4.644;2023-04-19T11:54:31;1.50;;;1.40;;
10150;SDS011;5116;52.318;4.644;2023-04-19T11:57:03;1.90;;;1.80;;
10150;SDS011;5116;52.318;4.644;2023-04-19T11:59:31;1.63;;;1.37;;
10150;SDS011;5116;52.318;4.644;2023-04-19T12:02:05;1.57;;;1.43;;
10150;SDS011;5116;52.318;4.644;2023-04-19T12:04:33;1.80;;;1.70;;
10150;SDS011;5116;52.318;4.644;2023-04-19T12:07:02;2.50;;;2.30;;
10150;SDS011;5116;52.318;4.644;2023-04-19T12:09:32;2.30;;;2.10;;
10150;SDS011;5116;52.318;4.644;2023-04-19T12:11:59;3.47;;;2.00;;
10150;SDS011;5116;52.318;4.644;2023-04-19T12:14:27;2.40;;;2.20;;
10150;SDS011;5116;52.318;4.644;2023-04-19T12:17:11;3.13;;;2.40;;
10150;SDS011;5116;52.318;4.644;2023-04-19T12:19:42;2.10;;;1.90;;
10150;SDS011;5116;52.318;4.644;2023-04-19T12:22:17;2.20;;;2.00;;
10150;SDS011;5116;52.318;4.644;2023-04-19T12:24:49;2.53;;;2.30;;
10150;SDS011;5116;52.318;4.644;2023-04-19T12:27:17;2.30;;;2.10;;
10150;SDS011;5116;52.318;4.644;2023-04-19T12:29:45;2.93;;;2.63;;
10150;SDS011;5116;52.318;4.644;2023-04-19T12:32:12;2.20;;;2.10;;
10150;SDS011;5116;52.318;4.644;2023-04-19T12:34:44;4.17;;;2.40;;
10150;SDS011;5116;52.318;4.644;2023-04-19T12:37:11;2.10;;;2.00;;
10150;SDS011;5116;52.318;4.644;2023-04-19T12:39:38;2.50;;;2.30;;
10150;SDS011;5116;52.318;4.644;2023-04-19T12:42:07;2.53;;;2.33;;
10150;SDS011;5116;52.318;4.644;2023-04-19T12:44:35;2.93;;;2.57;;
10150;SDS011;5116;52.318;4.644;2023-04-19T12:47:02;3.03;;;2.47;;
10150;SDS011;5116;52.318;4.644;2023-04-19T12:49:29;3.00;;;2.80;;
10150;SDS011;5116;52.318;4.644;2023-04-19T12:51:59;2.40;;;2.20;;
10150;SDS011;5116;52.318;4.644;2023-04-19T12:54:26;2.50;;;2.40;;
10150;SDS011;5116;52.318;4.644;2023-04-19T12:56:54;2.57;;;2.37;;
10150;SDS011;5116;52.318;4.644;2023-04-19T12:59:23;2.13;;;2.03;;
10150;SDS011;5116;52.318;4.644;2023-04-19T13:01:50;2.43;;;2.23;;
10150;SDS011;5116;52.318;4.644;2023-04-19T13:04:19;2.40;;;2.17;;
10150;SDS011;5116;52.318;4.644;2023-04-19T13:06:47;2.50;;;2.30;;
10150;SDS011;5116;52.318;4.644;2023-04-19T13:09:16;2.00;;;1.90;;
10150;SDS011;5116;52.318;4.644;2023-04-19T13:11:44;2.60;;;2.30;;
10150;SDS011;5116;52.318;4.644;2023-04-19T13:14:12;2.03;;;1.93;;
10150;SDS011;5116;52.318;4.644;2023-04-19T13:16:40;2.03;;;1.93;;
10150;SDS011;5116;52.318;4.644;2023-04-19T13:19:07;2.00;;;1.90;;
10150;SDS011;5116;52.318;4.644;2023-04-19T13:21:35;2.20;;;1.90;;
10150;SDS011;5116;52.318;4.644;2023-04-19T13:24:02;1.97;;;1.77;;
10150;SDS011;5116;52.318;4.644;2023-04-19T13:26:30;2.10;;;2.00;;
10150;SDS011;5116;52.318;4.644;2023-04-19T13:28:59;1.83;;;1.73;;
10150;SDS011;5116;52.318;4.644;2023-04-19T13:31:27;2.27;;;2.13;;
10150;SDS011;5116;52.318;4.644;2023-04-19T13:33:54;1.57;;;1.47;;
10150;SDS011;5116;52.318;4.644;2023-04-19T13:36:22;1.70;;;1.60;;
10150;SDS011;5116;52.318;4.644;2023-04-19T13:38:49;1.93;;;1.67;;
10150;SDS011;5116;52.318;4.644;2023-04-19T13:41:17;2.47;;;1.97;;
10150;SDS011;5116;52.318;4.644;2023-04-19T13:43:47;2.60;;;2.10;;
10150;SDS011;5116;52.318;4.644;2023-04-19T13:46:16;1.70;;;1.60;;
10150;SDS011;5116;52.318;4.644;2023-04-19T13:48:43;3.00;;;1.87;;
10150;SDS011;5116;52.318;4.644;2023-04-19T13:51:11;1.90;;;1.80;;
10150;SDS011;5116;52.318;4.644;2023-04-19T13:53:38;2.40;;;2.20;;
10150;SDS011;5116;52.318;4.644;2023-04-19T13:56:06;2.10;;;1.90;;
10150;SDS011;5116;52.318;4.644;2023-04-19T13:58:35;3.83;;;1.70;;
10150;SDS011;5116;52.318;4.644;2023-04-19T14:01:02;2.10;;;1.97;;
10150;SDS011;5116;52.318;4.644;2023-04-19T14:03:30;2.47;;;2.27;;
10150;SDS011;5116;52.318;4.644;2023-04-19T14:05:58;1.90;;;1.80;;
10150;SDS011;5116;52.318;4.644;2023-04-19T14:08:25;1.70;;;1.60;;
10150;SDS011;5116;52.318;4.644;2023-04-19T14:10:53;5.27;;;2.30;;
10150;SDS011;5116;52.318;4.644;2023-04-19T14:13:22;2.27;;;2.10;;
10150;SDS011;5116;52.318;4.644;2023-04-19T14:15:53;2.30;;;2.10;;
10150;SDS011;5116;52.318;4.644;2023-04-19T14:18:22;2.33;;;2.13;;
10150;SDS011;5116;52.318;4.644;2023-04-19T14:20:51;2.10;;;2.00;;
10150;SDS011;5116;52.318;4.644;2023-04-19T14:23:20;2.20;;;2.00;;
10150;SDS011;5116;52.318;4.644;2023-04-19T14:25:50;2.40;;;1.93;;
10150;SDS011;5116;52.318;4.644;2023-04-19T14:28:23;2.30;;;2.20;;
10150;SDS011;5116;52.318;4.644;2023-04-19T14:30:54;2.13;;;2.03;;
10150;SDS011;5116;52.318;4.644;2023-04-19T14:33:37;1.87;;;1.77;;
10150;SDS011;5116;52.318;4.644;2023-04-19T14:36:11;1.93;;;1.83;;
10150;SDS011;5116;52.318;4.644;2023-04-19T14:38:39;2.17;;;1.97;;
10150;SDS011;5116;52.318;4.644;2023-04-19T14:41:09;1.70;;;1.60;;
10150;SDS011;5116;52.318;4.644;2023-04-19T14:43:53;1.70;;;1.60;;
10150;SDS011;5116;52.318;4.644;2023-04-19T14:46:25;1.90;;;1.80;;
10150;SDS011;5116;52.318;4.644;2023-04-19T14:49:00;1.70;;;1.60;;
10150;SDS011;5116;52.318;4.644;2023-04-19T14:51:34;1.63;;;1.53;;
10150;SDS011;5116;52.318;4.644;2023-04-19T14:54:02;1.40;;;1.30;;
10150;SDS011;5116;52.318;4.644;2023-04-19T14:56:36;1.50;;;1.40;;
10150;SDS011;5116;52.318;4.644;2023-04-19T14:59:22;1.60;;;1.50;;
10150;SDS011;5116;52.318;4.644;2023-04-19T15:01:50;1.80;;;1.50;;
10150;SDS011;5116;52.318;4.644;2023-04-19T15:04:29;1.43;;;1.33;;
10150;SDS011;5116;52.318;4.644;2023-04-19T15:07:04;1.40;;;1.30;;
10150;SDS011;5116;52.318;4.644;2023-04-19T15:09:48;1.67;;;1.57;;
10150;SDS011;5116;52.318;4.644;2023-04-19T15:12:19;1.50;;;1.40;;
10150;SDS011;5116;52.318;4.644;2023-04-19T15:14:52;1.70;;;1.60;;
10150;SDS011;5116;52.318;4.644;2023-04-19T15:17:41;1.30;;;1.20;;
10150;SDS011;5116;52.318;4.644;2023-04-19T15:20:17;1.53;;;1.43;;
10150;SDS011;5116;52.318;4.644;2023-04-19T15:22:47;1.50;;;1.40;;
10150;SDS011;5116;52.318;4.644;2023-04-19T15:29:38;1.73;;;1.63;;
10150;SDS011;5116;52.318;4.644;2023-04-19T15:32:07;2.33;;;1.83;;
10150;SDS011;5116;52.318;4.644;2023-04-19T15:34:38;1.73;;;1.60;;
10150;SDS011;5116;52.318;4.644;2023-04-19T15:37:08;3.90;;;1.97;;
10150;SDS011;5116;52.318;4.644;2023-04-19T15:39:35;1.60;;;1.50;;
10150;SDS011;5116;52.318;4.644;2023-04-19T15:42:04;1.77;;;1.60;;
10150;SDS011;5116;52.318;4.644;2023-04-19T15:44:32;1.83;;;1.60;;